createdAt,value
2018-12-12T00:01:29.093Z,3.20
2018-12-12T00:04:32.452Z,3.10
2018-12-12T00:07:10.549Z,3.00
2018-12-12T00:09:48.185Z,2.90
2018-12-12T00:16:34.922Z,2.80
2018-12-12T00:22:48.584Z,2.60
2018-12-12T00:25:29.080Z,2.60
2018-12-12T00:28:09.800Z,2.50
2018-12-12T00:30:50.328Z,2.40
2018-12-12T00:33:25.670Z,2.40
2018-12-12T00:36:03.838Z,2.30
2018-12-12T00:38:41.488Z,2.20
2018-12-12T00:41:30.600Z,2.20
2018-12-12T00:44:11.426Z,2.10
2018-12-12T00:50:23.726Z,2.00
2018-12-12T00:53:04.382Z,1.90
2018-12-12T00:55:45.336Z,1.90
2018-12-12T00:58:21.904Z,1.90
2018-12-12T01:00:57.046Z,1.90
2018-12-12T01:03:34.766Z,1.90
2018-12-12T01:06:15.665Z,1.80
2018-12-12T01:08:54.079Z,1.80
2018-12-12T01:11:34.290Z,1.90
2018-12-12T01:14:15.148Z,1.80
2018-12-12T01:16:56.992Z,1.90
2018-12-12T01:19:33.444Z,1.80
2018-12-12T01:22:11.153Z,1.80
2018-12-12T01:24:49.349Z,1.80
2018-12-12T01:27:27.087Z,1.80
2018-12-12T01:32:40.739Z,1.80
2018-12-12T02:12:24.737Z,1.50
2018-12-12T02:15:03.299Z,1.50
2018-12-12T02:17:44.209Z,1.40
2018-12-12T02:20:20.830Z,1.40
2018-12-12T02:22:56.611Z,1.40
2018-12-12T02:25:36.592Z,1.40
2018-12-12T02:28:17.303Z,1.40
2018-12-12T02:30:55.694Z,1.50
2018-12-12T02:33:35.932Z,1.60
2018-12-12T02:36:18.677Z,1.60
2018-12-12T02:39:04.229Z,1.70
2018-12-12T02:41:39.751Z,1.80
2018-12-12T02:44:15.462Z,1.90
2018-12-12T02:46:55.731Z,1.90
2018-12-12T02:49:34.170Z,1.90
2018-12-12T02:52:14.393Z,1.90
2018-12-12T02:54:49.949Z,2.00
2018-12-12T02:57:30.089Z,1.90
2018-12-12T03:00:09.471Z,2.00
2018-12-12T03:02:47.079Z,2.00
2018-12-12T03:05:27.591Z,2.10
2018-12-12T03:08:05.751Z,2.20
2018-12-12T03:10:42.483Z,2.20
2018-12-12T03:13:30.843Z,2.20
2018-12-12T03:16:09.285Z,2.20
2018-12-12T03:18:49.478Z,2.20
2018-12-12T03:21:27.834Z,2.30
2018-12-12T03:24:08.062Z,2.30
2018-12-12T03:30:19.987Z,2.40
2018-12-12T03:33:08.619Z,2.40
2018-12-12T03:35:46.707Z,2.50
2018-12-12T03:38:27.068Z,2.60
2018-12-12T03:41:05.612Z,2.50
2018-12-12T03:43:43.586Z,2.60
2018-12-12T03:46:24.054Z,2.70
2018-12-12T03:49:05.017Z,2.70
2018-12-12T03:51:43.496Z,2.70
2018-12-12T03:54:23.976Z,2.70
2018-12-12T03:57:12.889Z,2.80
2018-12-12T03:59:53.716Z,2.80
2018-12-12T04:02:22.881Z,2.80
2018-12-12T04:04:59.427Z,2.80
2018-12-12T04:07:37.078Z,2.70
2018-12-12T04:10:14.954Z,2.80
2018-12-12T04:12:55.238Z,2.90
2018-12-12T04:15:35.519Z,2.80
2018-12-12T04:18:18.396Z,2.80
2018-12-12T04:20:54.894Z,2.90
2018-12-12T04:23:32.582Z,2.80
2018-12-12T04:26:21.013Z,2.80
2018-12-12T04:36:05.741Z,2.80
2018-12-12T04:38:41.992Z,2.70
2018-12-12T04:41:18.427Z,2.70
2018-12-12T04:44:21.320Z,2.60
2018-12-12T04:46:59.332Z,2.60
2018-12-12T04:49:35.146Z,2.60
2018-12-12T04:52:13.109Z,2.60
2018-12-12T04:54:51.063Z,2.50
2018-12-12T04:57:27.007Z,2.50
2018-12-12T05:00:05.592Z,2.50
2018-12-12T05:02:42.321Z,2.50
2018-12-12T05:05:20.891Z,2.50
2018-12-12T05:08:01.255Z,2.50
2018-12-12T05:10:46.192Z,2.50
2018-12-12T05:13:22.703Z,2.50
2018-12-12T05:16:00.376Z,2.50
2018-12-12T05:18:42.560Z,2.40
2018-12-12T05:21:23.676Z,2.40
2018-12-12T05:24:01.996Z,2.40
2018-12-12T05:26:46.990Z,2.40
2018-12-12T05:29:25.546Z,2.40
2018-12-12T05:32:05.863Z,2.40
2018-12-12T05:34:46.627Z,2.30
2018-12-12T05:37:22.942Z,2.30
2018-12-12T05:40:01.182Z,2.30
2018-12-12T05:42:45.446Z,2.20
2018-12-12T05:45:34.904Z,2.20
2018-12-12T05:48:12.690Z,2.10
2018-12-12T05:50:50.472Z,2.00
2018-12-12T05:53:30.629Z,1.90
2018-12-12T05:56:14.093Z,1.90
2018-12-12T05:58:53.589Z,1.90
2018-12-12T06:01:42.256Z,1.90
2018-12-12T06:04:20.779Z,1.80
2018-12-12T06:07:01.100Z,1.80
2018-12-12T06:09:42.997Z,1.80
2018-12-12T06:12:21.407Z,1.70
2018-12-12T06:15:01.642Z,1.70
2018-12-12T06:17:40.065Z,1.60
2018-12-12T06:20:18.032Z,1.50
2018-12-12T06:23:06.135Z,1.50
2018-12-12T06:25:46.184Z,1.50
2018-12-12T06:28:22.346Z,1.50
2018-12-12T06:31:00.354Z,1.40
2018-12-12T06:33:42.060Z,1.40
2018-12-12T06:36:22.873Z,1.30
2018-12-12T06:38:58.569Z,1.30
2018-12-12T06:41:38.917Z,1.30
2018-12-12T06:44:19.617Z,1.20
2018-12-12T06:47:02.211Z,1.30
2018-12-12T06:49:43.129Z,1.30
2018-12-12T06:52:24.049Z,1.30
2018-12-12T06:55:00.289Z,1.30
2018-12-12T06:57:40.504Z,1.20
2018-12-12T07:00:16.752Z,1.20
2018-12-12T07:02:54.738Z,1.20
2018-12-12T07:05:35.088Z,1.20
2018-12-12T07:08:16.759Z,1.10
2018-12-12T07:10:57.610Z,1.10
2018-12-12T07:13:36.048Z,1.00
2018-12-12T07:16:16.451Z,1.00
2018-12-12T07:18:58.973Z,1.00
2018-12-12T07:25:08.581Z,1.00
2018-12-12T07:27:46.405Z,0.90
2018-12-12T07:30:22.399Z,0.90
2018-12-12T07:33:02.593Z,0.90
2018-12-12T07:35:40.889Z,0.90
2018-12-12T07:38:29.061Z,0.90
2018-12-12T07:41:09.858Z,0.90
2018-12-12T07:43:48.143Z,0.90
2018-12-12T07:46:24.271Z,0.90
2018-12-12T07:49:01.577Z,0.90
2018-12-12T07:51:37.654Z,0.90
2018-12-12T07:54:18.020Z,0.90
2018-12-12T07:56:58.577Z,0.90
2018-12-12T07:59:34.898Z,0.90
2018-12-12T08:02:15.561Z,0.80
2018-12-12T08:04:52.101Z,0.90
2018-12-12T08:07:30.686Z,0.90
2018-12-12T08:10:11.455Z,0.90
2018-12-12T08:12:51.335Z,1.00
2018-12-12T08:15:27.838Z,1.00
2018-12-12T08:18:16.177Z,1.00
2018-12-12T08:21:04.817Z,1.00
2018-12-12T08:23:43.026Z,1.00
2018-12-12T08:26:28.755Z,1.10
2018-12-12T08:29:09.790Z,1.10
2018-12-12T08:31:47.846Z,1.20
2018-12-12T08:34:25.599Z,1.20
2018-12-12T08:37:03.502Z,1.30
2018-12-12T08:39:41.564Z,1.30
2018-12-12T08:42:19.202Z,1.40
2018-12-12T08:44:57.344Z,1.50
2018-12-12T08:47:35.174Z,1.70
2018-12-12T08:50:13.049Z,1.80
2018-12-12T08:52:49.470Z,1.90
2018-12-12T08:55:27.617Z,2.00
2018-12-12T08:58:02.394Z,2.00
2018-12-12T09:00:40.211Z,2.10
2018-12-12T09:03:28.612Z,2.20
2018-12-12T09:06:07.010Z,2.40
2018-12-12T09:08:42.962Z,2.50
2018-12-12T09:11:20.830Z,2.60
2018-12-12T09:13:56.657Z,2.80
2018-12-12T09:16:36.805Z,3.00
2018-12-12T09:19:15.336Z,3.20
2018-12-12T09:21:53.373Z,3.50
2018-12-12T09:24:31.363Z,3.70
2018-12-12T09:27:11.770Z,3.90
2018-12-12T09:29:50.345Z,4.00
2018-12-12T09:32:30.980Z,4.20
2018-12-12T09:35:09.646Z,4.30
2018-12-12T09:37:47.454Z,4.40
2018-12-12T09:40:25.298Z,4.30
2018-12-12T09:43:13.668Z,4.20
2018-12-12T09:46:04.756Z,4.20
2018-12-12T09:48:45.713Z,4.20
2018-12-12T09:51:22.256Z,4.20
2018-12-12T09:53:58.259Z,4.20
2018-12-12T09:56:38.564Z,4.20
2018-12-12T09:59:24.497Z,4.20
2018-12-12T10:01:59.796Z,4.20
2018-12-12T10:04:39.943Z,4.30
2018-12-12T10:07:19.180Z,4.30
2018-12-12T10:10:00.457Z,4.40
2018-12-12T10:12:40.468Z,4.50
2018-12-12T10:15:18.856Z,4.50
2018-12-12T10:17:57.015Z,4.60
2018-12-12T10:20:41.418Z,4.80
2018-12-12T10:23:23.910Z,5.10
2018-12-12T10:26:15.761Z,5.40
2018-12-12T10:28:54.823Z,5.90
2018-12-12T10:31:31.236Z,6.50
2018-12-12T10:34:07.160Z,6.90
2018-12-12T10:36:45.060Z,7.30
2018-12-12T10:39:25.274Z,7.60
2018-12-12T10:42:06.292Z,8.10
2018-12-12T10:44:47.017Z,8.50
2018-12-12T10:47:49.514Z,8.90
2018-12-12T10:50:34.557Z,9.20
2018-12-12T10:53:15.349Z,9.50
2018-12-12T10:55:53.127Z,9.80
2018-12-12T10:58:33.571Z,10.20
2018-12-12T11:01:26.925Z,10.70
2018-12-12T11:04:04.812Z,10.80
2018-12-12T11:06:46.937Z,11.10
2018-12-12T11:09:27.737Z,11.20
2018-12-12T11:12:06.223Z,11.50
2018-12-12T11:15:08.389Z,11.50
2018-12-12T11:17:48.833Z,11.70
2018-12-12T11:20:24.011Z,11.80
2018-12-12T11:23:04.941Z,12.00
2018-12-12T11:25:45.811Z,12.10
2018-12-12T11:28:26.574Z,12.40
2018-12-12T11:31:07.151Z,12.80
2018-12-12T11:33:34.877Z,12.90
2018-12-12T11:36:02.704Z,12.70
2018-12-12T11:38:51.606Z,12.50
2018-12-12T11:41:19.157Z,13.10
2018-12-12T11:43:46.707Z,13.50
2018-12-12T11:46:22.999Z,14.00
2018-12-12T11:48:50.817Z,14.00
2018-12-12T11:54:49.513Z,14.60
2018-12-12T11:57:25.531Z,14.90
2018-12-12T12:00:04.353Z,15.30
2018-12-12T12:02:35.539Z,14.90
2018-12-12T12:05:15.054Z,15.60
2018-12-12T12:07:45.614Z,16.00
2018-12-12T12:24:16.267Z,16.90
2018-12-12T12:26:43.864Z,16.20
2018-12-12T12:29:24.785Z,16.20
2018-12-12T12:31:52.561Z,16.30
2018-12-12T12:34:43.697Z,15.90
2018-12-12T12:37:11.336Z,16.50
2018-12-12T12:39:38.963Z,16.80
2018-12-12T12:42:33.440Z,17.10
2018-12-12T12:45:25.844Z,16.80
2018-12-12T12:48:03.947Z,16.80
2018-12-12T12:50:46.649Z,16.40
2018-12-12T12:53:26.902Z,16.70
2018-12-12T12:56:12.361Z,16.70
2018-12-12T12:58:48.912Z,16.90
2018-12-12T13:01:50.892Z,17.40
2018-12-12T13:04:31.103Z,17.40
2018-12-12T13:07:09.377Z,17.50
2018-12-12T13:09:47.252Z,17.80
2018-12-12T13:12:27.324Z,18.00
2018-12-12T13:15:05.864Z,18.00
2018-12-12T13:17:46.770Z,18.40
2018-12-12T13:20:23.154Z,18.50
2018-12-12T13:22:58.127Z,17.60
2018-12-12T13:25:34.314Z,17.80
2018-12-12T13:28:14.755Z,17.20
2018-12-12T13:30:52.368Z,17.00
2018-12-12T13:33:43.520Z,17.10
2018-12-12T13:36:25.171Z,17.10
2018-12-12T13:39:06.251Z,17.30
2018-12-12T13:41:42.155Z,17.40
2018-12-12T13:44:22.434Z,17.30
2018-12-12T13:47:17.139Z,17.40
2018-12-12T13:49:55.308Z,17.40
2018-12-12T13:52:31.435Z,17.10
2018-12-12T13:55:11.767Z,17.30
2018-12-12T13:57:53.315Z,17.00
2018-12-12T14:03:50.871Z,15.20
2018-12-12T14:06:30.984Z,14.10
2018-12-12T14:09:06.795Z,13.50
2018-12-12T14:12:10.007Z,12.80
2018-12-12T14:14:46.100Z,12.60
2018-12-12T14:17:26.172Z,11.90
2018-12-12T14:19:57.224Z,11.70
2018-12-12T14:22:37.598Z,11.50
2018-12-12T14:25:14.205Z,11.20
2018-12-12T14:27:52.984Z,10.90
2018-12-12T14:30:34.918Z,10.80
2018-12-12T14:33:12.732Z,10.60
2018-12-12T14:35:48.749Z,10.40
2018-12-12T14:38:29.505Z,10.20
2018-12-12T14:41:10.069Z,9.80
2018-12-12T14:43:50.852Z,9.80
2018-12-12T14:46:29.050Z,9.60
2018-12-12T14:49:05.032Z,9.60
2018-12-12T14:51:43.032Z,9.50
2018-12-12T14:54:20.872Z,9.40
2018-12-12T14:56:56.845Z,9.30
2018-12-12T14:59:32.774Z,9.10
2018-12-12T15:02:13.090Z,9.10
2018-12-12T15:05:02.167Z,9.00
2018-12-12T15:07:40.756Z,8.90
2018-12-12T15:10:18.708Z,8.80
2018-12-12T15:13:09.918Z,8.60
2018-12-12T15:15:46.507Z,8.50
2018-12-12T15:18:24.249Z,8.40
2018-12-12T15:21:02.258Z,8.00
2018-12-12T15:23:38.858Z,7.80
2018-12-12T15:26:15.230Z,7.70
2018-12-12T15:28:51.282Z,7.70
2018-12-12T15:31:39.681Z,7.60
2018-12-12T15:34:21.251Z,7.50
2018-12-12T15:37:02.133Z,7.30
2018-12-12T15:39:42.944Z,7.20
2018-12-12T15:42:23.880Z,7.00
2018-12-12T15:45:00.262Z,6.90
2018-12-12T15:47:36.508Z,6.90
2018-12-12T15:50:16.844Z,6.60
2018-12-12T15:52:53.385Z,6.60
2018-12-12T15:55:31.470Z,6.50
2018-12-12T15:58:20.005Z,6.50
2018-12-12T16:01:08.668Z,6.40
2018-12-12T16:03:46.257Z,6.30
2018-12-12T16:06:24.170Z,6.20
2018-12-12T16:09:05.469Z,6.20
2018-12-12T16:11:43.885Z,6.10
2018-12-12T16:14:32.201Z,6.00
2018-12-12T16:17:10.575Z,5.90
2018-12-12T16:19:52.774Z,5.90
2018-12-12T16:22:33.741Z,5.80
2018-12-12T16:25:15.428Z,5.70
2018-12-12T16:27:56.254Z,5.60
2018-12-12T16:30:34.637Z,5.60
2018-12-12T16:33:10.479Z,5.50
2018-12-12T16:35:48.238Z,5.50
2018-12-12T16:38:26.391Z,5.40
2018-12-12T16:41:06.371Z,5.30
2018-12-12T16:43:42.747Z,5.30
2018-12-12T16:46:18.717Z,5.20
2018-12-12T16:48:58.925Z,5.10
2018-12-12T16:51:37.306Z,5.10
2018-12-12T16:54:13.267Z,5.00
2018-12-12T16:56:49.029Z,5.00
2018-12-12T16:59:24.953Z,4.90
2018-12-12T17:02:01.505Z,4.90
2018-12-12T17:04:38.107Z,4.90
2018-12-12T17:07:14.323Z,5.00
2018-12-12T17:09:52.435Z,5.00
2018-12-12T17:12:31.057Z,5.00
2018-12-12T17:15:11.195Z,5.10
2018-12-12T17:17:47.547Z,5.10
2018-12-12T17:20:25.316Z,5.20
2018-12-12T17:22:59.701Z,5.30
2018-12-12T17:25:38.141Z,5.20
2018-12-12T17:28:15.977Z,5.30
2018-12-12T17:30:56.383Z,5.30
2018-12-12T17:33:32.419Z,5.30
2018-12-12T17:36:08.242Z,5.30
2018-12-12T17:38:44.916Z,5.30
2018-12-12T17:41:20.821Z,5.30
2018-12-12T17:43:58.794Z,5.20
2018-12-12T17:46:34.922Z,5.20
2018-12-12T17:49:12.790Z,5.20
2018-12-12T17:51:52.977Z,5.30
2018-12-12T17:54:31.115Z,5.20
2018-12-12T17:57:08.830Z,5.20
2018-12-12T17:59:44.973Z,5.20
2018-12-12T18:02:25.985Z,5.20
2018-12-12T18:05:01.921Z,5.20
2018-12-12T18:07:37.618Z,5.10
2018-12-12T18:10:13.620Z,5.10
2018-12-12T18:12:49.712Z,5.00
2018-12-12T18:15:30.010Z,5.00
2018-12-12T18:18:08.182Z,4.80
2018-12-12T18:20:44.120Z,4.80
2018-12-12T18:23:33.067Z,4.70
2018-12-12T18:26:23.400Z,4.70
2018-12-12T18:29:01.360Z,4.60
2018-12-12T18:31:37.417Z,4.60
2018-12-12T18:34:27.938Z,4.50
2018-12-12T18:37:04.130Z,4.50
2018-12-12T18:39:42.206Z,4.40
2018-12-12T18:42:26.321Z,4.40
2018-12-12T18:45:05.012Z,4.30
2018-12-12T18:47:53.892Z,4.20
2018-12-12T18:50:31.538Z,4.20
2018-12-12T18:53:09.566Z,4.10
2018-12-12T18:55:45.638Z,4.10
2018-12-12T18:58:25.976Z,4.00
2018-12-12T19:01:04.441Z,4.00
2018-12-12T19:03:42.161Z,4.00
2018-12-12T19:06:20.015Z,4.00
2018-12-12T19:09:00.257Z,3.90
2018-12-12T19:11:36.612Z,3.80
2018-12-12T19:14:16.634Z,3.80
2018-12-12T19:16:54.877Z,3.80
2018-12-12T19:19:32.868Z,3.70
2018-12-12T19:22:11.466Z,3.60
2018-12-12T19:24:53.754Z,3.60
2018-12-12T20:41:32.408Z,2.90
2018-12-12T20:44:10.705Z,2.80
2018-12-12T20:46:49.195Z,2.90
2018-12-12T20:49:27.197Z,2.80
2018-12-12T20:52:12.232Z,2.80
2018-12-12T20:54:50.581Z,2.80
2018-12-12T20:57:32.424Z,2.80
2018-12-12T21:00:12.595Z,2.80
2018-12-12T21:02:53.218Z,2.80
2018-12-12T21:05:42.301Z,2.70
2018-12-12T21:08:23.089Z,2.70
2018-12-12T21:11:07.811Z,2.70
2018-12-12T21:13:48.690Z,2.70
2018-12-12T21:16:29.301Z,2.70
2018-12-12T21:19:19.002Z,2.70
2018-12-12T21:22:05.125Z,2.60
2018-12-12T21:25:07.167Z,2.60
2018-12-12T21:27:55.971Z,2.60
2018-12-12T21:30:33.837Z,2.70
2018-12-12T21:33:13.989Z,2.70
2018-12-12T21:36:02.798Z,2.60
2018-12-12T21:38:41.066Z,2.70
2018-12-12T21:41:17.227Z,2.60
2018-12-12T21:43:58.401Z,2.60
2018-12-12T21:46:47.917Z,2.60
2018-12-12T21:49:26.159Z,2.60
2018-12-12T21:52:05.801Z,2.60
2018-12-12T21:54:50.297Z,2.60
2018-12-12T21:57:31.787Z,2.60
2018-12-12T22:00:11.835Z,2.60
2018-12-12T22:02:50.311Z,2.60
2018-12-12T22:05:31.328Z,2.60
2018-12-12T22:08:10.650Z,2.60
2018-12-12T22:10:46.555Z,2.60
2018-12-12T22:13:25.882Z,2.60
2018-12-12T22:16:06.858Z,2.60
2018-12-12T22:18:51.805Z,2.50
2018-12-12T22:21:30.073Z,2.50
2018-12-12T22:24:07.963Z,2.60
2018-12-12T22:26:56.622Z,2.50
2018-12-12T22:29:33.439Z,2.50
2018-12-12T22:32:11.480Z,2.50
2018-12-12T22:34:52.583Z,2.50
2018-12-12T22:37:30.920Z,2.40
2018-12-12T22:40:08.700Z,2.40
2018-12-12T22:42:46.802Z,2.40
2018-12-12T22:45:24.823Z,2.40
2018-12-12T22:48:01.001Z,2.40
2018-12-12T22:50:49.296Z,2.40
2018-12-12T22:53:27.088Z,2.40
2018-12-12T22:56:04.841Z,2.40
2018-12-12T22:58:45.243Z,2.30
2018-12-12T23:01:24.227Z,2.40
2018-12-12T23:04:02.582Z,2.30
2018-12-12T23:06:42.827Z,2.30
2018-12-12T23:09:31.819Z,2.30
2018-12-12T23:12:10.163Z,2.30
2018-12-12T23:14:47.833Z,2.40
2018-12-12T23:17:26.041Z,2.30
2018-12-12T23:20:06.278Z,2.30
2018-12-12T23:22:42.499Z,2.30
2018-12-12T23:25:20.329Z,2.30
2018-12-12T23:28:04.563Z,2.30
2018-12-12T23:30:42.843Z,2.20
2018-12-12T23:33:20.609Z,2.20
2018-12-12T23:36:00.747Z,2.30
2018-12-12T23:38:38.977Z,2.20
2018-12-12T23:41:17.162Z,2.20
2018-12-12T23:44:05.366Z,2.20
2018-12-12T23:46:46.087Z,2.20
2018-12-12T23:49:24.494Z,2.20
2018-12-12T23:52:02.727Z,2.10
2018-12-12T23:54:40.441Z,2.10
2018-12-12T23:57:18.987Z,2.20
2018-12-12T23:59:59.111Z,2.20
